Terminal Aerodrome Forecast
Issued by NWS North Platte, NE

Home | Current Version | Previous Version | Text Only | Print | Product List | Glossary On
Versions: 1 2 3 4 5 6 7 8 9 10 11 12 13 14
000
FTUS43 KLBF 221733
TAFVTN
TAF
KVTN 221733Z 2218/2318 30011KT P6SM SCT120
     FM222300 01011KT P6SM BKN120
     FM230300 01010KT P6SM VCTS BKN050CB BKN120
     FM230900 36009KT P6SM VCSH OVC025
     FM231100 01009KT P6SM VCSH OVC008=

USA.gov is the U.S. government's official web portal to all federal, state and local government web resources and services.